Weather at Kilkerran UL

Public forecast

Using degrees Celsius for public forecast. Weather courtesy of forecast.io.

Closest aviation weather report (METAR) to Kilkerran UL

Closest report is Glasgow Prestwick Airport, 12.5 nm (23.2 km) NNE.

2024/05/24 20:20 (retrieved 12 minutes ago)

EGPK 242020Z 22003KT 180V240 9999 SCT013 BKN019 12/10 Q1018

Closest aviation forecast (TAF) to Kilkerran UL

Closest forecast is Glasgow Prestwick Airport, 12.5 nm (23.2 km) NNE.

2024/05/24 18:00 (retrieved 3 hours ago)

TAF EGPK 241655Z 2418/2518 25004KT 9999 SCT012 BKN025 TEMPO 2418/2509 7000 -RA BKN012 PROB30 TEMPO 2418/2502 4000 RADZ BKN006 BECMG 2501/2504 13010KT